sensor_id;sensor_type;location;lat;lon;timestamp;P1;durP1;ratioP1;P2;durP2;ratioP2
50102;SDS011;35993;52.604;10.078;2023-04-19T00:01:19;3.95;;;2.35;;
50102;SDS011;35993;52.604;10.078;2023-04-19T00:03:45;3.83;;;2.20;;
50102;SDS011;35993;52.604;10.078;2023-04-19T00:06:10;4.32;;;2.40;;
50102;SDS011;35993;52.604;10.078;2023-04-19T00:08:39;4.00;;;2.10;;
50102;SDS011;35993;52.604;10.078;2023-04-19T00:11:06;4.00;;;2.10;;
50102;SDS011;35993;52.604;10.078;2023-04-19T00:13:32;5.45;;;2.33;;
50102;SDS011;35993;52.604;10.078;2023-04-19T00:15:58;6.90;;;2.70;;
50102;SDS011;35993;52.604;10.078;2023-04-19T00:18:23;5.00;;;2.20;;
50102;SDS011;35993;52.604;10.078;2023-04-19T00:20:49;4.38;;;2.28;;
50102;SDS011;35993;52.604;10.078;2023-04-19T00:23:14;3.63;;;2.13;;
50102;SDS011;35993;52.604;10.078;2023-04-19T00:25:40;4.05;;;2.30;;
50102;SDS011;35993;52.604;10.078;2023-04-19T00:28:05;6.50;;;2.47;;
50102;SDS011;35993;52.604;10.078;2023-04-19T00:30:31;4.70;;;2.10;;
50102;SDS011;35993;52.604;10.078;2023-04-19T00:32:56;4.68;;;2.60;;
50102;SDS011;35993;52.604;10.078;2023-04-19T00:35:23;4.13;;;2.13;;
50102;SDS011;35993;52.604;10.078;2023-04-19T00:37:48;5.00;;;2.60;;
50102;SDS011;35993;52.604;10.078;2023-04-19T00:40:14;4.22;;;2.25;;
50102;SDS011;35993;52.604;10.078;2023-04-19T00:42:40;3.92;;;1.98;;
50102;SDS011;35993;52.604;10.078;2023-04-19T00:45:06;4.47;;;2.05;;
50102;SDS011;35993;52.604;10.078;2023-04-19T00:47:32;5.32;;;2.60;;
50102;SDS011;35993;52.604;10.078;2023-04-19T00:49:59;4.40;;;2.50;;
50102;SDS011;35993;52.604;10.078;2023-04-19T00:52:24;4.30;;;2.25;;
50102;SDS011;35993;52.604;10.078;2023-04-19T00:54:50;4.38;;;2.45;;
50102;SDS011;35993;52.604;10.078;2023-04-19T00:57:16;8.35;;;2.67;;
50102;SDS011;35993;52.604;10.078;2023-04-19T00:59:42;5.00;;;2.38;;
50102;SDS011;35993;52.604;10.078;2023-04-19T01:02:08;6.00;;;2.70;;
50102;SDS011;35993;52.604;10.078;2023-04-19T01:04:34;7.72;;;2.20;;
50102;SDS011;35993;52.604;10.078;2023-04-19T01:07:00;4.63;;;2.10;;
50102;SDS011;35993;52.604;10.078;2023-04-19T01:09:27;5.70;;;2.22;;
50102;SDS011;35993;52.604;10.078;2023-04-19T01:11:52;3.78;;;2.20;;
50102;SDS011;35993;52.604;10.078;2023-04-19T01:14:18;5.22;;;2.35;;
50102;SDS011;35993;52.604;10.078;2023-04-19T01:16:45;5.30;;;2.13;;
50102;SDS011;35993;52.604;10.078;2023-04-19T01:19:12;3.28;;;2.00;;
50102;SDS011;35993;52.604;10.078;2023-04-19T01:21:38;3.83;;;2.03;;
50102;SDS011;35993;52.604;10.078;2023-04-19T01:24:05;5.13;;;2.35;;
50102;SDS011;35993;52.604;10.078;2023-04-19T01:26:30;6.32;;;2.45;;
50102;SDS011;35993;52.604;10.078;2023-04-19T01:28:56;5.22;;;2.15;;
50102;SDS011;35993;52.604;10.078;2023-04-19T01:31:21;4.18;;;2.20;;
50102;SDS011;35993;52.604;10.078;2023-04-19T01:33:47;3.72;;;2.25;;
50102;SDS011;35993;52.604;10.078;2023-04-19T01:36:12;4.70;;;2.30;;
50102;SDS011;35993;52.604;10.078;2023-04-19T01:38:40;4.28;;;2.10;;
50102;SDS011;35993;52.604;10.078;2023-04-19T01:41:08;4.57;;;2.20;;
50102;SDS011;35993;52.604;10.078;2023-04-19T01:43:33;4.28;;;2.20;;
50102;SDS011;35993;52.604;10.078;2023-04-19T01:45:59;5.18;;;2.25;;
50102;SDS011;35993;52.604;10.078;2023-04-19T01:48:24;5.65;;;2.15;;
50102;SDS011;35993;52.604;10.078;2023-04-19T01:50:51;4.90;;;2.00;;
50102;SDS011;35993;52.604;10.078;2023-04-19T01:53:17;5.60;;;2.10;;
50102;SDS011;35993;52.604;10.078;2023-04-19T01:55:42;4.82;;;2.10;;
50102;SDS011;35993;52.604;10.078;2023-04-19T01:58:08;3.65;;;2.17;;
50102;SDS011;35993;52.604;10.078;2023-04-19T02:00:34;4.22;;;1.90;;
50102;SDS011;35993;52.604;10.078;2023-04-19T02:03:03;4.70;;;2.17;;
50102;SDS011;35993;52.604;10.078;2023-04-19T02:05:28;4.68;;;2.13;;
50102;SDS011;35993;52.604;10.078;2023-04-19T02:07:54;6.82;;;3.33;;
50102;SDS011;35993;52.604;10.078;2023-04-19T02:10:19;4.32;;;2.20;;
50102;SDS011;35993;52.604;10.078;2023-04-19T02:12:45;4.72;;;2.45;;
50102;SDS011;35993;52.604;10.078;2023-04-19T02:15:10;4.88;;;2.22;;
50102;SDS011;35993;52.604;10.078;2023-04-19T02:17:36;4.68;;;2.00;;
50102;SDS011;35993;52.604;10.078;2023-04-19T02:20:03;4.63;;;2.13;;
50102;SDS011;35993;52.604;10.078;2023-04-19T02:22:29;5.40;;;1.92;;
50102;SDS011;35993;52.604;10.078;2023-04-19T02:24:55;5.47;;;2.05;;
50102;SDS011;35993;52.604;10.078;2023-04-19T02:27:26;5.18;;;2.08;;
50102;SDS011;35993;52.604;10.078;2023-04-19T02:29:53;5.63;;;2.20;;
50102;SDS011;35993;52.604;10.078;2023-04-19T02:32:18;4.25;;;1.77;;
50102;SDS011;35993;52.604;10.078;2023-04-19T02:34:44;4.65;;;2.28;;
50102;SDS011;35993;52.604;10.078;2023-04-19T02:37:09;5.78;;;2.10;;
50102;SDS011;35993;52.604;10.078;2023-04-19T02:39:35;3.40;;;1.88;;
50102;SDS011;35993;52.604;10.078;2023-04-19T02:42:01;4.20;;;2.20;;
50102;SDS011;35993;52.604;10.078;2023-04-19T02:44:26;5.10;;;2.28;;
50102;SDS011;35993;52.604;10.078;2023-04-19T02:46:52;3.28;;;2.08;;
50102;SDS011;35993;52.604;10.078;2023-04-19T02:49:19;4.45;;;2.13;;
50102;SDS011;35993;52.604;10.078;2023-04-19T02:51:45;4.32;;;1.95;;
50102;SDS011;35993;52.604;10.078;2023-04-19T02:54:12;3.63;;;2.00;;
50102;SDS011;35993;52.604;10.078;2023-04-19T02:56:39;5.32;;;1.90;;
50102;SDS011;35993;52.604;10.078;2023-04-19T02:59:05;5.22;;;2.00;;
50102;SDS011;35993;52.604;10.078;2023-04-19T03:01:31;4.38;;;1.95;;
50102;SDS011;35993;52.604;10.078;2023-04-19T03:03:58;5.00;;;2.22;;
50102;SDS011;35993;52.604;10.078;2023-04-19T03:06:24;6.45;;;1.90;;
50102;SDS011;35993;52.604;10.078;2023-04-19T03:08:50;4.80;;;2.20;;
50102;SDS011;35993;52.604;10.078;2023-04-19T03:11:17;5.60;;;2.08;;
50102;SDS011;35993;52.604;10.078;2023-04-19T03:13:43;4.43;;;2.25;;
50102;SDS011;35993;52.604;10.078;2023-04-19T03:16:11;3.03;;;1.77;;
50102;SDS011;35993;52.604;10.078;2023-04-19T03:18:36;3.20;;;1.92;;
50102;SDS011;35993;52.604;10.078;2023-04-19T03:21:03;6.18;;;2.20;;
50102;SDS011;35993;52.604;10.078;2023-04-19T03:23:34;4.43;;;2.22;;
50102;SDS011;35993;52.604;10.078;2023-04-19T03:26:00;4.88;;;2.00;;
50102;SDS011;35993;52.604;10.078;2023-04-19T03:28:55;4.68;;;2.08;;
50102;SDS011;35993;52.604;10.078;2023-04-19T03:31:24;4.75;;;1.98;;
50102;SDS011;35993;52.604;10.078;2023-04-19T03:33:51;4.03;;;2.10;;
50102;SDS011;35993;52.604;10.078;2023-04-19T03:36:20;4.68;;;2.20;;
50102;SDS011;35993;52.604;10.078;2023-04-19T03:38:46;4.88;;;2.15;;
50102;SDS011;35993;52.604;10.078;2023-04-19T03:41:16;4.05;;;2.20;;
50102;SDS011;35993;52.604;10.078;2023-04-19T03:43:43;4.03;;;1.83;;
50102;SDS011;35993;52.604;10.078;2023-04-19T03:46:09;3.53;;;1.83;;
50102;SDS011;35993;52.604;10.078;2023-04-19T03:48:35;3.67;;;1.90;;
50102;SDS011;35993;52.604;10.078;2023-04-19T03:51:00;5.72;;;2.17;;
50102;SDS011;35993;52.604;10.078;2023-04-19T03:53:26;4.15;;;2.10;;
50102;SDS011;35993;52.604;10.078;2023-04-19T03:55:51;4.90;;;2.00;;
50102;SDS011;35993;52.604;10.078;2023-04-19T03:58:17;6.00;;;1.80;;
50102;SDS011;35993;52.604;10.078;2023-04-19T04:00:49;5.28;;;2.22;;
50102;SDS011;35993;52.604;10.078;2023-04-19T04:03:16;3.85;;;2.17;;
50102;SDS011;35993;52.604;10.078;2023-04-19T04:05:42;6.35;;;2.08;;
50102;SDS011;35993;52.604;10.078;2023-04-19T04:08:08;5.32;;;2.10;;
50102;SDS011;35993;52.604;10.078;2023-04-19T04:10:33;4.47;;;2.10;;
50102;SDS011;35993;52.604;10.078;2023-04-19T04:12:59;4.28;;;2.05;;
50102;SDS011;35993;52.604;10.078;2023-04-19T04:15:45;5.07;;;2.10;;
50102;SDS011;35993;52.604;10.078;2023-04-19T04:18:12;4.95;;;1.90;;
50102;SDS011;35993;52.604;10.078;2023-04-19T04:20:37;4.45;;;1.90;;
50102;SDS011;35993;52.604;10.078;2023-04-19T04:23:06;5.18;;;2.20;;
50102;SDS011;35993;52.604;10.078;2023-04-19T04:25:34;4.13;;;2.10;;
50102;SDS011;35993;52.604;10.078;2023-04-19T04:28:03;3.60;;;1.73;;
50102;SDS011;35993;52.604;10.078;2023-04-19T04:30:29;3.72;;;2.10;;
50102;SDS011;35993;52.604;10.078;2023-04-19T04:32:56;4.60;;;1.98;;
50102;SDS011;35993;52.604;10.078;2023-04-19T04:35:25;6.25;;;1.83;;
50102;SDS011;35993;52.604;10.078;2023-04-19T04:37:59;6.03;;;2.28;;
50102;SDS011;35993;52.604;10.078;2023-04-19T04:40:25;6.53;;;2.13;;
50102;SDS011;35993;52.604;10.078;2023-04-19T04:42:51;4.13;;;2.42;;
50102;SDS011;35993;52.604;10.078;2023-04-19T04:45:17;4.72;;;2.00;;
50102;SDS011;35993;52.604;10.078;2023-04-19T04:47:44;4.53;;;1.83;;
50102;SDS011;35993;52.604;10.078;2023-04-19T04:50:11;3.33;;;2.00;;
50102;SDS011;35993;52.604;10.078;2023-04-19T04:52:37;6.68;;;2.45;;
50102;SDS011;35993;52.604;10.078;2023-04-19T04:55:08;4.50;;;2.25;;
50102;SDS011;35993;52.604;10.078;2023-04-19T04:57:38;4.35;;;2.30;;
50102;SDS011;35993;52.604;10.078;2023-04-19T05:00:06;4.28;;;2.10;;
50102;SDS011;35993;52.604;10.078;2023-04-19T05:02:41;4.82;;;2.00;;
50102;SDS011;35993;52.604;10.078;2023-04-19T05:05:07;4.50;;;2.03;;
50102;SDS011;35993;52.604;10.078;2023-04-19T05:07:35;4.70;;;2.13;;
50102;SDS011;35993;52.604;10.078;2023-04-19T05:10:01;6.43;;;2.10;;
50102;SDS011;35993;52.604;10.078;2023-04-19T05:12:35;5.25;;;2.10;;
50102;SDS011;35993;52.604;10.078;2023-04-19T05:15:01;5.65;;;2.50;;
50102;SDS011;35993;52.604;10.078;2023-04-19T05:17:27;4.70;;;2.40;;
50102;SDS011;35993;52.604;10.078;2023-04-19T05:19:53;4.47;;;2.30;;
50102;SDS011;35993;52.604;10.078;2023-04-19T05:22:18;3.20;;;1.83;;
50102;SDS011;35993;52.604;10.078;2023-04-19T05:24:45;5.18;;;2.10;;
50102;SDS011;35993;52.604;10.078;2023-04-19T05:27:11;5.05;;;2.10;;
50102;SDS011;35993;52.604;10.078;2023-04-19T05:29:37;2.63;;;1.80;;
50102;SDS011;35993;52.604;10.078;2023-04-19T05:32:03;5.68;;;2.35;;
50102;SDS011;35993;52.604;10.078;2023-04-19T05:34:33;3.92;;;2.13;;
50102;SDS011;35993;52.604;10.078;2023-04-19T05:36:59;4.25;;;2.00;;
50102;SDS011;35993;52.604;10.078;2023-04-19T05:39:25;4.45;;;2.22;;
50102;SDS011;35993;52.604;10.078;2023-04-19T05:41:50;5.18;;;1.85;;
50102;SDS011;35993;52.604;10.078;2023-04-19T05:44:16;4.30;;;2.25;;
50102;SDS011;35993;52.604;10.078;2023-04-19T05:46:42;3.13;;;1.83;;
50102;SDS011;35993;52.604;10.078;2023-04-19T05:49:10;4.40;;;2.38;;
50102;SDS011;35993;52.604;10.078;2023-04-19T05:51:54;5.88;;;2.03;;
50102;SDS011;35993;52.604;10.078;2023-04-19T05:54:39;5.15;;;2.22;;
50102;SDS011;35993;52.604;10.078;2023-04-19T05:57:05;5.85;;;2.30;;
50102;SDS011;35993;52.604;10.078;2023-04-19T05:59:31;4.70;;;2.17;;
50102;SDS011;35993;52.604;10.078;2023-04-19T06:01:57;5.95;;;2.60;;
50102;SDS011;35993;52.604;10.078;2023-04-19T06:04:22;3.95;;;2.03;;
50102;SDS011;35993;52.604;10.078;2023-04-19T06:06:48;4.00;;;2.03;;
50102;SDS011;35993;52.604;10.078;2023-04-19T06:09:13;3.60;;;1.88;;
50102;SDS011;35993;52.604;10.078;2023-04-19T06:11:39;4.68;;;1.90;;
50102;SDS011;35993;52.604;10.078;2023-04-19T06:14:07;4.22;;;1.85;;
50102;SDS011;35993;52.604;10.078;2023-04-19T06:16:32;5.38;;;2.25;;
50102;SDS011;35993;52.604;10.078;2023-04-19T06:18:58;3.38;;;1.88;;
50102;SDS011;35993;52.604;10.078;2023-04-19T06:21:23;4.40;;;1.80;;
50102;SDS011;35993;52.604;10.078;2023-04-19T06:23:49;5.93;;;2.15;;
50102;SDS011;35993;52.604;10.078;2023-04-19T06:26:15;4.20;;;1.77;;
50102;SDS011;35993;52.604;10.078;2023-04-19T06:28:40;4.53;;;1.40;;
50102;SDS011;35993;52.604;10.078;2023-04-19T06:31:05;4.07;;;1.70;;
50102;SDS011;35993;52.604;10.078;2023-04-19T06:33:31;3.13;;;1.80;;
50102;SDS011;35993;52.604;10.078;2023-04-19T06:35:57;3.35;;;1.60;;
50102;SDS011;35993;52.604;10.078;2023-04-19T06:38:22;6.35;;;1.80;;
50102;SDS011;35993;52.604;10.078;2023-04-19T06:40:48;4.10;;;1.70;;
50102;SDS011;35993;52.604;10.078;2023-04-19T06:43:13;2.63;;;1.50;;
50102;SDS011;35993;52.604;10.078;2023-04-19T06:45:39;3.17;;;1.52;;
50102;SDS011;35993;52.604;10.078;2023-04-19T06:48:04;5.13;;;1.70;;
50102;SDS011;35993;52.604;10.078;2023-04-19T06:50:30;5.03;;;1.77;;
50102;SDS011;35993;52.604;10.078;2023-04-19T06:52:56;2.97;;;1.45;;
50102;SDS011;35993;52.604;10.078;2023-04-19T06:55:21;2.47;;;1.45;;
50102;SDS011;35993;52.604;10.078;2023-04-19T06:57:47;3.80;;;1.67;;
50102;SDS011;35993;52.604;10.078;2023-04-19T07:00:13;3.70;;;1.80;;
50102;SDS011;35993;52.604;10.078;2023-04-19T07:02:39;2.90;;;1.67;;
50102;SDS011;35993;52.604;10.078;2023-04-19T07:05:04;3.25;;;1.52;;
50102;SDS011;35993;52.604;10.078;2023-04-19T07:07:32;3.05;;;1.65;;
50102;SDS011;35993;52.604;10.078;2023-04-19T07:09:57;4.00;;;1.60;;
50102;SDS011;35993;52.604;10.078;2023-04-19T07:12:23;2.67;;;1.58;;
50102;SDS011;35993;52.604;10.078;2023-04-19T07:14:48;4.32;;;1.40;;
50102;SDS011;35993;52.604;10.078;2023-04-19T07:17:14;4.57;;;1.60;;
50102;SDS011;35993;52.604;10.078;2023-04-19T07:19:41;2.70;;;1.70;;
50102;SDS011;35993;52.604;10.078;2023-04-19T07:22:12;3.67;;;1.70;;
50102;SDS011;35993;52.604;10.078;2023-04-19T07:24:38;3.45;;;1.60;;
50102;SDS011;35993;52.604;10.078;2023-04-19T07:27:06;2.67;;;1.48;;
50102;SDS011;35993;52.604;10.078;2023-04-19T07:29:34;3.92;;;1.77;;
50102;SDS011;35993;52.604;10.078;2023-04-19T07:32:01;2.50;;;1.60;;
50102;SDS011;35993;52.604;10.078;2023-04-19T07:34:27;3.10;;;1.63;;
50102;SDS011;35993;52.604;10.078;2023-04-19T07:36:52;2.45;;;1.48;;
50102;SDS011;35993;52.604;10.078;2023-04-19T07:39:18;3.72;;;1.60;;
50102;SDS011;35993;52.604;10.078;2023-04-19T07:41:43;2.83;;;1.50;;
50102;SDS011;35993;52.604;10.078;2023-04-19T07:44:10;3.25;;;1.70;;
50102;SDS011;35993;52.604;10.078;2023-04-19T07:46:37;4.20;;;1.77;;
50102;SDS011;35993;52.604;10.078;2023-04-19T07:49:02;2.55;;;1.65;;
50102;SDS011;35993;52.604;10.078;2023-04-19T07:51:28;3.42;;;1.80;;
50102;SDS011;35993;52.604;10.078;2023-04-19T07:53:53;2.47;;;1.55;;
50102;SDS011;35993;52.604;10.078;2023-04-19T07:56:21;3.00;;;1.80;;
50102;SDS011;35993;52.604;10.078;2023-04-19T07:58:47;3.78;;;1.67;;
50102;SDS011;35993;52.604;10.078;2023-04-19T08:01:12;3.72;;;1.67;;
50102;SDS011;35993;52.604;10.078;2023-04-19T08:03:38;3.42;;;1.60;;
50102;SDS011;35993;52.604;10.078;2023-04-19T08:06:04;4.47;;;1.60;;
50102;SDS011;35993;52.604;10.078;2023-04-19T08:08:31;3.85;;;1.73;;
50102;SDS011;35993;52.604;10.078;2023-04-19T08:10:57;3.03;;;1.73;;
50102;SDS011;35993;52.604;10.078;2023-04-19T08:13:22;4.35;;;1.60;;
50102;SDS011;35993;52.604;10.078;2023-04-19T08:15:48;2.58;;;1.70;;
50102;SDS011;35993;52.604;10.078;2023-04-19T08:18:13;2.42;;;1.40;;
50102;SDS011;35993;52.604;10.078;2023-04-19T08:20:39;4.55;;;1.50;;
50102;SDS011;35993;52.604;10.078;2023-04-19T08:23:06;3.83;;;1.70;;
50102;SDS011;35993;52.604;10.078;2023-04-19T08:25:33;5.07;;;1.70;;
50102;SDS011;35993;52.604;10.078;2023-04-19T08:27:58;4.60;;;1.60;;
50102;SDS011;35993;52.604;10.078;2023-04-19T08:30:25;3.45;;;1.60;;
50102;SDS011;35993;52.604;10.078;2023-04-19T08:32:51;3.58;;;1.65;;
50102;SDS011;35993;52.604;10.078;2023-04-19T08:35:16;3.05;;;1.40;;
50102;SDS011;35993;52.604;10.078;2023-04-19T08:37:42;3.67;;;1.60;;
50102;SDS011;35993;52.604;10.078;2023-04-19T08:40:07;2.63;;;1.60;;
50102;SDS011;35993;52.604;10.078;2023-04-19T08:42:34;3.42;;;2.05;;
50102;SDS011;35993;52.604;10.078;2023-04-19T08:45:00;2.22;;;1.50;;
50102;SDS011;35993;52.604;10.078;2023-04-19T08:47:29;4.05;;;1.80;;
50102;SDS011;35993;52.604;10.078;2023-04-19T08:49:57;2.75;;;1.58;;
50102;SDS011;35993;52.604;10.078;2023-04-19T08:52:26;2.35;;;1.50;;
50102;SDS011;35993;52.604;10.078;2023-04-19T08:54:55;2.72;;;1.65;;
50102;SDS011;35993;52.604;10.078;2023-04-19T08:57:22;2.63;;;1.55;;
50102;SDS011;35993;52.604;10.078;2023-04-19T08:59:47;3.72;;;1.65;;
50102;SDS011;35993;52.604;10.078;2023-04-19T09:02:16;3.00;;;1.67;;
50102;SDS011;35993;52.604;10.078;2023-04-19T09:04:41;2.63;;;1.40;;
50102;SDS011;35993;52.604;10.078;2023-04-19T09:07:07;2.67;;;1.58;;
50102;SDS011;35993;52.604;10.078;2023-04-19T09:09:33;2.55;;;1.50;;
50102;SDS011;35993;52.604;10.078;2023-04-19T09:12:00;2.28;;;1.40;;
50102;SDS011;35993;52.604;10.078;2023-04-19T09:14:26;3.25;;;1.60;;
50102;SDS011;35993;52.604;10.078;2023-04-19T09:16:52;4.32;;;1.45;;
50102;SDS011;35993;52.604;10.078;2023-04-19T09:19:19;3.95;;;1.80;;
50102;SDS011;35993;52.604;10.078;2023-04-19T09:21:45;5.70;;;1.63;;
50102;SDS011;35993;52.604;10.078;2023-04-19T09:24:11;3.90;;;1.60;;
50102;SDS011;35993;52.604;10.078;2023-04-19T09:26:36;4.95;;;1.40;;
50102;SDS011;35993;52.604;10.078;2023-04-19T09:29:05;2.47;;;1.50;;
50102;SDS011;35993;52.604;10.078;2023-04-19T09:31:32;2.92;;;1.70;;
50102;SDS011;35993;52.604;10.078;2023-04-19T09:34:12;3.63;;;1.70;;
50102;SDS011;35993;52.604;10.078;2023-04-19T09:36:39;3.90;;;1.55;;
50102;SDS011;35993;52.604;10.078;2023-04-19T09:39:05;3.83;;;1.48;;
50102;SDS011;35993;52.604;10.078;2023-04-19T09:41:31;3.00;;;1.40;;
50102;SDS011;35993;52.604;10.078;2023-04-19T09:44:10;2.65;;;1.40;;
50102;SDS011;35993;52.604;10.078;2023-04-19T09:46:39;2.53;;;1.50;;
50102;SDS011;35993;52.604;10.078;2023-04-19T09:51:59;1.83;;;1.30;;
50102;SDS011;35993;52.604;10.078;2023-04-19T09:54:25;2.55;;;1.40;;
50102;SDS011;35993;52.604;10.078;2023-04-19T09:56:56;4.00;;;1.73;;
50102;SDS011;35993;52.604;10.078;2023-04-19T09:59:22;3.35;;;1.70;;
50102;SDS011;35993;52.604;10.078;2023-04-19T10:01:51;2.55;;;1.60;;
50102;SDS011;35993;52.604;10.078;2023-04-19T10:04:18;5.15;;;1.65;;
50102;SDS011;35993;52.604;10.078;2023-04-19T10:06:48;3.45;;;1.52;;
50102;SDS011;35993;52.604;10.078;2023-04-19T10:09:18;2.95;;;1.60;;
50102;SDS011;35993;52.604;10.078;2023-04-19T10:11:51;6.07;;;1.40;;
50102;SDS011;35993;52.604;10.078;2023-04-19T10:14:21;2.33;;;1.52;;
50102;SDS011;35993;52.604;10.078;2023-04-19T10:16:51;5.55;;;2.03;;
50102;SDS011;35993;52.604;10.078;2023-04-19T10:19:17;2.83;;;1.40;;
50102;SDS011;35993;52.604;10.078;2023-04-19T10:21:45;3.13;;;1.42;;
50102;SDS011;35993;52.604;10.078;2023-04-19T10:24:12;4.30;;;1.60;;
50102;SDS011;35993;52.604;10.078;2023-04-19T10:32:28;4.25;;;1.85;;
50102;SDS011;35993;52.604;10.078;2023-04-19T10:35:00;5.40;;;1.70;;
50102;SDS011;35993;52.604;10.078;2023-04-19T10:37:29;3.25;;;1.73;;
50102;SDS011;35993;52.604;10.078;2023-04-19T10:39:55;3.80;;;1.48;;
50102;SDS011;35993;52.604;10.078;2023-04-19T10:42:21;2.30;;;1.70;;
50102;SDS011;35993;52.604;10.078;2023-04-19T10:47:51;5.75;;;1.58;;
50102;SDS011;35993;52.604;10.078;2023-04-19T10:50:17;4.55;;;1.70;;
50102;SDS011;35993;52.604;10.078;2023-04-19T10:52:42;5.22;;;1.90;;
50102;SDS011;35993;52.604;10.078;2023-04-19T10:55:08;3.08;;;1.75;;
50102;SDS011;35993;52.604;10.078;2023-04-19T11:00:30;2.67;;;1.63;;
50102;SDS011;35993;52.604;10.078;2023-04-19T11:03:50;2.88;;;1.73;;
50102;SDS011;35993;52.604;10.078;2023-04-19T11:06:17;3.05;;;1.60;;
50102;SDS011;35993;52.604;10.078;2023-04-19T11:08:44;3.85;;;1.88;;
50102;SDS011;35993;52.604;10.078;2023-04-19T11:11:11;3.97;;;1.67;;
50102;SDS011;35993;52.604;10.078;2023-04-19T11:13:40;4.95;;;1.70;;
50102;SDS011;35993;52.604;10.078;2023-04-19T11:16:07;2.92;;;1.80;;
50102;SDS011;35993;52.604;10.078;2023-04-19T11:18:33;4.70;;;1.63;;
50102;SDS011;35993;52.604;10.078;2023-04-19T11:20:59;2.97;;;1.70;;
50102;SDS011;35993;52.604;10.078;2023-04-19T11:23:25;2.05;;;1.42;;
50102;SDS011;35993;52.604;10.078;2023-04-19T11:25:51;3.75;;;1.60;;
50102;SDS011;35993;52.604;10.078;2023-04-19T11:28:17;4.07;;;1.73;;
50102;SDS011;35993;52.604;10.078;2023-04-19T11:30:45;2.60;;;1.75;;
50102;SDS011;35993;52.604;10.078;2023-04-19T11:33:12;4.10;;;1.80;;
50102;SDS011;35993;52.604;10.078;2023-04-19T11:35:38;3.03;;;1.75;;
50102;SDS011;35993;52.604;10.078;2023-04-19T11:38:04;2.80;;;1.98;;
50102;SDS011;35993;52.604;10.078;2023-04-19T11:40:30;2.90;;;1.45;;
50102;SDS011;35993;52.604;10.078;2023-04-19T11:42:57;5.35;;;2.00;;
50102;SDS011;35993;52.604;10.078;2023-04-19T11:45:25;8.35;;;1.80;;
50102;SDS011;35993;52.604;10.078;2023-04-19T11:47:55;5.55;;;1.70;;
50102;SDS011;35993;52.604;10.078;2023-04-19T11:53:08;6.20;;;1.70;;
50102;SDS011;35993;52.604;10.078;2023-04-19T11:55:45;3.28;;;1.70;;
50102;SDS011;35993;52.604;10.078;2023-04-19T11:58:25;3.63;;;1.95;;
50102;SDS011;35993;52.604;10.078;2023-04-19T12:00:57;4.65;;;1.85;;
50102;SDS011;35993;52.604;10.078;2023-04-19T12:03:30;4.35;;;1.80;;
50102;SDS011;35993;52.604;10.078;2023-04-19T12:05:56;3.58;;;1.75;;
50102;SDS011;35993;52.604;10.078;2023-04-19T12:08:34;3.40;;;1.80;;
50102;SDS011;35993;52.604;10.078;2023-04-19T12:11:01;5.00;;;1.90;;
50102;SDS011;35993;52.604;10.078;2023-04-19T12:13:28;3.22;;;2.15;;
50102;SDS011;35993;52.604;10.078;2023-04-19T12:15:55;4.45;;;2.08;;
50102;SDS011;35993;52.604;10.078;2023-04-19T12:18:21;3.85;;;2.00;;
50102;SDS011;35993;52.604;10.078;2023-04-19T12:20:47;5.25;;;2.20;;
50102;SDS011;35993;52.604;10.078;2023-04-19T12:23:14;4.57;;;2.10;;
50102;SDS011;35993;52.604;10.078;2023-04-19T12:25:42;3.58;;;1.95;;
50102;SDS011;35993;52.604;10.078;2023-04-19T12:28:09;5.47;;;2.20;;
50102;SDS011;35993;52.604;10.078;2023-04-19T12:30:35;4.50;;;2.65;;
50102;SDS011;35993;52.604;10.078;2023-04-19T12:33:00;4.88;;;2.30;;
50102;SDS011;35993;52.604;10.078;2023-04-19T12:35:26;4.35;;;2.10;;
50102;SDS011;35993;52.604;10.078;2023-04-19T12:37:53;3.45;;;2.20;;
50102;SDS011;35993;52.604;10.078;2023-04-19T12:40:20;6.03;;;2.35;;
50102;SDS011;35993;52.604;10.078;2023-04-19T12:42:47;3.10;;;1.90;;
50102;SDS011;35993;52.604;10.078;2023-04-19T12:45:12;4.65;;;2.20;;
50102;SDS011;35993;52.604;10.078;2023-04-19T12:47:41;4.07;;;2.10;;
50102;SDS011;35993;52.604;10.078;2023-04-19T12:50:08;5.80;;;2.20;;
50102;SDS011;35993;52.604;10.078;2023-04-19T12:52:34;4.80;;;2.20;;
50102;SDS011;35993;52.604;10.078;2023-04-19T12:54:59;3.28;;;1.95;;
50102;SDS011;35993;52.604;10.078;2023-04-19T12:57:25;6.53;;;2.35;;
50102;SDS011;35993;52.604;10.078;2023-04-19T12:59:53;5.60;;;2.10;;
50102;SDS011;35993;52.604;10.078;2023-04-19T13:02:18;3.70;;;2.05;;
50102;SDS011;35993;52.604;10.078;2023-04-19T13:04:45;4.65;;;2.10;;
50102;SDS011;35993;52.604;10.078;2023-04-19T13:07:11;4.88;;;2.47;;
50102;SDS011;35993;52.604;10.078;2023-04-19T13:09:37;5.45;;;2.20;;
50102;SDS011;35993;52.604;10.078;2023-04-19T13:12:04;3.28;;;2.30;;
50102;SDS011;35993;52.604;10.078;2023-04-19T13:14:29;5.30;;;2.08;;
50102;SDS011;35993;52.604;10.078;2023-04-19T13:16:55;4.57;;;1.90;;
50102;SDS011;35993;52.604;10.078;2023-04-19T13:19:21;5.65;;;2.17;;
50102;SDS011;35993;52.604;10.078;2023-04-19T13:21:46;5.18;;;1.98;;
50102;SDS011;35993;52.604;10.078;2023-04-19T13:24:11;5.60;;;2.60;;
50102;SDS011;35993;52.604;10.078;2023-04-19T13:26:37;4.10;;;2.10;;
50102;SDS011;35993;52.604;10.078;2023-04-19T13:29:03;3.40;;;1.95;;
50102;SDS011;35993;52.604;10.078;2023-04-19T13:31:29;5.65;;;1.80;;
50102;SDS011;35993;52.604;10.078;2023-04-19T13:33:55;4.07;;;2.20;;
50102;SDS011;35993;52.604;10.078;2023-04-19T13:36:20;5.70;;;2.90;;
50102;SDS011;35993;52.604;10.078;2023-04-19T13:38:46;3.40;;;2.03;;
50102;SDS011;35993;52.604;10.078;2023-04-19T13:41:13;3.08;;;2.00;;
50102;SDS011;35993;52.604;10.078;2023-04-19T13:43:39;7.70;;;2.60;;
50102;SDS011;35993;52.604;10.078;2023-04-19T13:46:05;3.50;;;2.22;;
50102;SDS011;35993;52.604;10.078;2023-04-19T13:48:30;4.70;;;2.22;;
50102;SDS011;35993;52.604;10.078;2023-04-19T13:50:56;6.97;;;2.10;;
50102;SDS011;35993;52.604;10.078;2023-04-19T13:53:23;5.03;;;2.20;;
50102;SDS011;35993;52.604;10.078;2023-04-19T13:55:50;7.30;;;2.30;;
50102;SDS011;35993;52.604;10.078;2023-04-19T13:58:16;3.28;;;2.08;;
50102;SDS011;35993;52.604;10.078;2023-04-19T14:00:42;4.72;;;2.10;;
50102;SDS011;35993;52.604;10.078;2023-04-19T14:03:08;5.72;;;2.00;;
50102;SDS011;35993;52.604;10.078;2023-04-19T14:05:34;4.22;;;1.85;;
50102;SDS011;35993;52.604;10.078;2023-04-19T14:08:00;4.57;;;2.10;;
50102;SDS011;35993;52.604;10.078;2023-04-19T14:10:25;4.53;;;1.90;;
50102;SDS011;35993;52.604;10.078;2023-04-19T14:12:51;7.22;;;2.33;;
50102;SDS011;35993;52.604;10.078;2023-04-19T14:15:20;4.55;;;1.90;;
50102;SDS011;35993;52.604;10.078;2023-04-19T14:17:45;3.67;;;2.15;;
50102;SDS011;35993;52.604;10.078;2023-04-19T14:20:11;4.50;;;1.90;;
50102;SDS011;35993;52.604;10.078;2023-04-19T14:22:37;3.95;;;2.00;;
50102;SDS011;35993;52.604;10.078;2023-04-19T14:25:03;5.13;;;2.22;;
50102;SDS011;35993;52.604;10.078;2023-04-19T14:27:29;5.30;;;1.70;;
50102;SDS011;35993;52.604;10.078;2023-04-19T14:29:55;4.78;;;1.95;;
50102;SDS011;35993;52.604;10.078;2023-04-19T14:32:20;4.30;;;2.13;;
50102;SDS011;35993;52.604;10.078;2023-04-19T14:34:46;4.50;;;2.00;;
50102;SDS011;35993;52.604;10.078;2023-04-19T14:37:11;4.43;;;1.70;;
50102;SDS011;35993;52.604;10.078;2023-04-19T14:39:37;4.03;;;1.95;;
50102;SDS011;35993;52.604;10.078;2023-04-19T14:42:02;4.78;;;2.00;;
50102;SDS011;35993;52.604;10.078;2023-04-19T14:44:28;4.88;;;1.63;;
50102;SDS011;35993;52.604;10.078;2023-04-19T14:46:54;6.20;;;1.90;;
50102;SDS011;35993;52.604;10.078;2023-04-19T14:49:19;6.50;;;2.15;;